Last 7 Days

Top of 22 - 10,067ft

Hourly Data | America/Los_Angeles
as of 3/5/24 7:10 AM PST
Date & Time Temp (°F) WindChill (°F) RH (%) Dew Pt (°F) Wet Bulb (°F) Wind Dir (°) Wind Spd (mph) Wind Gust (mph) Wind Gst Dir (°) Daily Min Temp (°F) Daily Max Temp (°F) Daily Max Wind (mph)
3/5/24 - 0700 14.9 -7.4 94 13.4 14.6 SSW | 212 37.0 43.8 SSW | 207 14.8 16.9 43.8
3/5/24 - 0600 15.0 -6.7 94 13.6 14.7 SSW | 212 34.8 43.6 SSW | 213 14.9 16.9 43.6
3/5/24 - 0500 15.4 -5.8 94 14.0 15.0 SW | 214 33.2 41.6 SSW | 212 15.2 16.9 41.6
3/5/24 - 0400 16.7 -4.0 95 15.4 16.3 SW | 215 33.3 41.4 SSW | 211 16.0 16.9 41.4
3/5/24 - 0300 16.7 -3.2 95 15.5 16.4 SSW | 213 30.4 39.0 SSW | 211 16.0 16.9 41.1
3/5/24 - 0200 16.6 -3.2 95 15.4 16.3 SSW | 212 29.8 41.1 SSW | 208 16.0 16.7 41.1
3/5/24 - 0100 16.2 -4.4 94 14.9 15.9 SSW | 211 32.3 40.3 SSW | 211 16.0 16.5 40.3
3/5/24 - 0000 16.3 -3.8 94 15.0 16.0 SW | 217 30.6 41.9 SSW | 211 8.4 18.8 68.8
3/4/24 - 2300 17.2 -3.0 95 15.9 16.8 SW | 224 32.0 45.7 WSW | 237 8.4 18.8 68.8
3/4/24 - 2200 17.9 -2.0 95 16.8 17.6 SW | 218 32.1 43.4 SSW | 211 8.4 18.8 68.8
3/4/24 - 2100 18.3 -1.5 95 17.2 17.9 SW | 216 31.8 40.4 SSW | 212 8.4 18.8 68.8
3/4/24 - 2000 18.7 0.2 96 17.6 18.3 SSW | 211 27.6 38.7 SSW | 210 8.4 18.8 68.8
3/4/24 - 1900 18.6 1.4 96 17.5 18.2 SSW | 212 22.9 34.1 SSW | 209 8.4 18.7 68.8
3/4/24 - 1800 18.0 0.3 95 16.9 17.7 SW | 216 24.0 35.6 SSW | 209 8.4 18.5 68.8
3/4/24 - 1700 17.6 -1.0 95 16.5 17.3 SW | 214 26.6 35.6 SSW | 209 8.4 18.0 68.8
3/4/24 - 1600 16.5 -2.6 95 15.3 16.2 SSW | 208 26.8 40.9 SSW | 209 8.4 17.2 68.8
3/4/24 - 1500 16.2 -2.7 95 14.9 15.9 SSW | 206 26.0 41.8 SSW | 212 8.4 16.6 68.8
3/4/24 - 1400 16.2 -4.6 95 14.9 15.9 SSW | 205 33.0 43.9 SSW | 209 8.4 16.6 68.8
3/4/24 - 1300 15.8 -3.1 94 14.5 15.4 SSW | 205 25.2 39.5 SSW | 207 8.4 16.6 68.8
3/4/24 - 1200 14.2 -7.4 94 12.7 13.9 SSW | 209 33.3 47.8 SSW | 209 8.4 15.2 68.8
3/4/24 - 1100 11.9 -11.4 92 10.0 11.6 SSW | 209 36.3 49.7 SSW | 210 8.4 12.3 68.8
3/4/24 - 1000 11.3 -8.9 92 9.5 11.0 SSW | 203 24.8 49.1 SSW | 207 8.4 12.0 68.8
3/4/24 - 0900 9.3 -15.2 91 7.2 9.1 SSW | 203 37.1 54.2 SSW | 207 8.4 11.7 68.8
3/4/24 - 0800 8.6 -17.0 91 6.5 8.4 SSW | 205 41.3 56.2 SSW | 204 8.4 11.7 68.8
3/4/24 - 0700 9.0 -16.8 91 6.8 8.8 SSW | 205 42.3 53.1 SSW | 203 8.4 11.7 68.8
3/4/24 - 0600 10.6 -13.2 92 8.6 10.3 SSW | 206 36.2 54.4 SSW | 205 9.8 11.7 68.8
3/4/24 - 0500 11.1 -12.6 92 9.2 10.8 SSW | 210 37.0 46.8 SSW | 209 11.0 11.7 68.8
3/4/24 - 0400 11.3 -13.4 92 9.4 11.0 SW | 214 41.5 55.4 SSW | 211 11.2 11.7 68.8
3/4/24 - 0300 11.6 -12.6 92 9.8 11.4 SW | 214 40.4 58.2 SW | 216 11.4 11.7 68.8
3/4/24 - 0200 11.5 -14.3 92 9.7 11.3 SW | 215 47.9 66.3 SSW | 206 11.5 11.7 68.8
3/4/24 - 0100 11.6 -15.4 92 9.7 11.3 SW | 216 53.7 68.8 SW | 224 11.5 11.6 68.8
3/4/24 - 0000 11.5 -14.8 92 9.7 11.2 SW | 215 50.4 79.9 SW | 232 9.2 13.5 87.8
3/3/24 - 2300 11.5 -14.0 92 9.7 11.2 SSW | 213 46.0 83.7 SW | 230 9.2 13.5 87.8
3/3/24 - 2200 11.6 -13.1 92 9.8 11.3 SSW | 212 42.0 69.3 SW | 220 9.2 13.5 87.8
3/3/24 - 2100 11.7 -14.2 92 9.9 11.4 SW | 218 48.3 76.9 SW | 230 9.2 13.5 87.8
3/3/24 - 2000 11.8 -15.4 92 10.0 11.5 SW | 222 55.6 87.8 WSW | 238 9.2 13.5 87.8
3/3/24 - 1900 11.6 -14.6 92 9.8 11.4 SSW | 213 50.3 71.1 SW | 215 9.2 13.5 86.8
3/3/24 - 1800 12.2 -15.2 92 10.4 11.9 SW | 217 57.7 73.6 SW | 225 9.2 13.5 86.8
3/3/24 - 1700 12.3 -16.0 93 10.6 12.0 SW | 222 64.8 86.8 SW | 228 9.2 13.5 86.8
3/3/24 - 1600 12.1 -15.7 92 10.4 11.8 SW | 222 60.8 77.7 SSW | 206 9.2 13.5 77.7
3/3/24 - 1500 11.5 -15.7 92 9.8 11.3 SW | 220 55.5 74.9 SW | 219 9.2 13.5 75.6
3/3/24 - 1400 11.4 -15.2 92 9.6 11.1 SW | 215 51.5 75.6 SW | 229 9.2 13.5 75.6
3/3/24 - 1300 10.9 -13.1 92 9.0 10.6 SW | 218 37.7 57.5 SW | 220 9.2 13.5 57.5
3/3/24 - 1200 10.5 -9.0 92 8.6 10.3 SW | 218 22.3 32.6 SW | 224 9.2 13.5 49.8
3/3/24 - 1100 10.5 -9.2 92 8.6 10.3 SW | 220 22.7 33.0 SW | 226 9.2 13.5 49.8
3/3/24 - 1000 10.5 -10.8 92 8.6 10.2 SW | 220 27.2 43.1 WSW | 239 9.2 13.5 49.8
3/3/24 - 0900 10.8 -10.6 92 8.8 10.5 SW | 221 27.6 44.7 WSW | 238 9.2 13.5 49.8
3/3/24 - 0800 11.1 -8.5 92 9.3 10.9 SW | 218 22.9 39.2 WSW | 237 9.2 13.5 49.8
3/3/24 - 0700 10.7 -5.9 92 8.8 10.5 SW | 215 15.6 40.8 SW | 227 9.2 13.5 49.8
3/3/24 - 0600 10.4 -6.3 92 8.5 10.2 SW | 216 15.4 30.4 WSW | 241 9.2 13.5 49.8
3/3/24 - 0500 9.6 -9.6 92 7.6 9.4 SW | 218 20.5 41.0 SW | 222 9.2 13.5 49.8
3/3/24 - 0400 9.8 -11.1 91 7.8 9.6 SW | 221 25.4 41.5 SW | 234 9.2 13.5 49.8
3/3/24 - 0300 10.3 -11.5 92 8.3 10.1 SW | 223 28.8 49.8 SW | 233 9.8 13.5 49.8
3/3/24 - 0200 11.6 -8.6 92 9.8 11.4 SW | 230 25.3 49.6 SW | 231 11.1 13.5 49.6
3/3/24 - 0100 12.7 -5.7 92 10.9 12.4 SW | 229 21.0 48.6 W | 269 12.1 13.5 48.6
3/3/24 - 0000 13.3 -5.4 93 11.6 13.0 SW | 228 22.1 48.8 WSW | 240 9.0 19.1 138.2
3/2/24 - 2300 12.5 -8.9 93 10.8 12.2 SW | 221 30.0 72.5 WSW | 242 9.0 19.1 138.2
3/2/24 - 2200 11.7 -9.0 92 9.9 11.5 SSW | 210 26.8 94.2 SW | 229 9.0 19.1 138.2
3/2/24 - 2100 11.7 -6.3 92 9.9 11.4 SSW | 210 19.2 59.1 WSW | 238 9.0 19.1 138.2
3/2/24 - 2000 10.9 -9.4 92 9.0 10.6 SW | 218 24.7 58.9 SW | 236 9.0 19.1 138.2
3/2/24 - 1900 9.8 -14.4 92 7.8 9.6 SSW | 212 36.6 75.2 SW | 230 9.0 19.1 138.2
3/2/24 - 1800 9.5 -14.2 91 7.4 9.2 SSW | 204 34.3 72.9 SE | 135 9.0 19.1 138.2
3/2/24 - 1700 9.6 -15.3 91 7.6 9.4 SW | 220 39.5 78.3 WSW | 258 9.4 19.1 138.2
3/2/24 - 1600 9.8 -16.4 91 7.8 9.6 SW | 220 45.7 85.3 WSW | 248 9.5 19.1 138.2
3/2/24 - 1500 9.7 -15.1 91 7.7 9.5 SW | 227 39.4 84.0 WSW | 238 9.5 19.1 138.2
3/2/24 - 1400 10.3 -13.0 92 8.4 10.1 SW | 227 34.3 90.5 SW | 228 9.5 19.1 138.2
3/2/24 - 1300 9.7 -13.2 91 7.6 9.5 SW | 225 31.8 89.8 WSW | 245 9.5 19.1 138.2
3/2/24 - 1200 10.5 -10.7 92 8.5 10.2 SW | 228 26.8 68.2 W | 279 9.6 19.1 138.2
3/2/24 - 1100 11.1 -9.9 92 9.2 10.8 SW | 229 26.9 76.2 SW | 221 10.8 19.1 138.2
3/2/24 - 1000 11.4 -12.1 92 9.6 11.1 SW | 226 36.5 69.4 WSW | 243 10.9 19.1 138.2
3/2/24 - 0900 11.4 -13.3 92 9.6 11.2 SW | 226 41.9 106.9 WSW | 246 10.9 19.1 138.2
3/2/24 - 0800 11.4 -14.5 92 9.5 11.1 SW | 226 47.7 111.7 SW | 233 10.9 19.1 138.2
3/2/24 - 0700 13.2 -10.8 93 11.5 12.9 SW | 225 42.2 90.9 WSW | 248 12.4 19.1 138.2
3/2/24 - 0600 14.4 -10.6 93 12.8 14.0 SW | 225 49.8 117.9 SW | 214 13.0 19.1 138.2
3/2/24 - 0500 16.8 -7.6 94 15.5 16.4 SW | 223 52.1 138.2 WSW | 239 15.4 19.1 138.2
3/2/24 - 0400 18.3 -4.0 95 17.2 17.9 SSW | 209 43.7 106.5 SSW | 199 17.8 19.1 110.8
3/2/24 - 0300 18.5 -3.7 96 17.4 18.1 SSW | 205 43.4 99.0 SW | 233 18.4 19.1 110.8
3/2/24 - 0200 18.7 -2.1 96 17.7 18.4 SSW | 196 37.1 96.3 SW | 219 18.5 19.1 110.8
3/2/24 - 0100 18.8 -2.8 96 17.8 18.5 SSW | 202 41.3 110.8 WSW | 240 18.6 19.1 110.8
3/2/24 - 0000 18.4 -4.1 96 17.4 18.1 SSW | 206 45.3 103.7 SSW | 200 17.8 21.7 103.8
3/1/24 - 2300 18.7 -0.4 96 17.6 18.3 S | 172 29.8 81.9 SW | 226 17.8 21.7 103.8
3/1/24 - 2200 18.6 -2.4 96 17.6 18.2 SSW | 196 37.7 87.8 SW | 229 17.8 21.7 103.8
3/1/24 - 2100 18.2 0.5 95 17.1 17.9 S | 169 24.4 81.8 S | 171 17.8 21.7 103.8
3/1/24 - 2000 18.0 -2.0 95 16.9 17.6 S | 170 32.3 103.8 SE | 145 17.8 21.7 103.8
3/1/24 - 1900 18.4 -1.0 95 17.3 18.1 S | 178 30.8 91.6 SSE | 150 17.8 21.7 102.6
3/1/24 - 1800 19.3 -1.0 96 18.4 19.0 SSW | 196 36.0 94.7 SW | 222 17.9 21.7 102.6
3/1/24 - 1700 19.5 -1.1 96 18.4 19.1 SSW | 196 37.5 90.1 SW | 235 17.9 21.7 102.6
3/1/24 - 1600 21.2 0.8 97 20.4 20.9 SSW | 195 39.6 82.3 SSW | 205 17.9 21.7 102.6
3/1/24 - 1500 21.4 3.9 97 20.6 21.0 S | 190 27.2 72.9 WSW | 238 17.9 21.7 102.6
3/1/24 - 1400 21.2 1.6 97 20.5 20.9 SSW | 195 36.2 102.6 SW | 230 17.9 21.7 102.6
3/1/24 - 1300 21.0 1.8 97 20.2 20.7 SSW | 197 33.7 74.2 SW | 235 17.9 21.4 82.2
3/1/24 - 1200 21.2 3.2 97 20.4 20.9 S | 184 29.1 75.6 WSW | 238 17.9 21.4 82.2
3/1/24 - 1100 20.7 3.0 97 19.8 20.3 S | 187 27.0 67.3 SSW | 201 17.9 21.1 82.2
3/1/24 - 1000 20.2 1.3 96 19.3 19.8 S | 189 30.9 78.9 SW | 228 17.9 20.4 82.2
3/1/24 - 0900 19.8 3.1 96 18.9 19.5 S | 178 22.8 67.6 SSW | 196 17.9 20.3 82.2
3/1/24 - 0800 19.2 1.5 96 18.2 18.8 S | 170 25.2 82.2 SE | 145 17.9 19.4 82.2
3/1/24 - 0700 18.9 0.3 96 17.9 18.6 SSW | 201 28.1 59.1 SSW | 205 17.9 19.1 81.9
3/1/24 - 0600 18.4 1.2 96 17.4 18.1 S | 188 22.9 56.6 SSW | 203 17.9 19.1 81.9
3/1/24 - 0500 18.4 1.2 95 17.3 18.1 S | 169 22.9 72.7 SE | 125 17.9 19.1 81.9
3/1/24 - 0400 18.4 -1.2 95 17.3 18.0 SSE | 161 31.1 75.8 ESE | 110 17.9 19.1 81.9
3/1/24 - 0300 18.6 -1.1 96 17.6 18.3 SSE | 162 32.5 81.9 SE | 142 18.4 19.1 81.9
3/1/24 - 0200 18.8 -0.1 96 17.8 18.4 SSE | 148 28.9 70.0 SE | 137 18.4 19.1 70.0
3/1/24 - 0100 18.6 2.7 96 17.5 18.2 S | 183 19.0 58.4 ESE | 121 18.4 18.7 58.4
3/1/24 - 0000 18.9 -3.4 96 17.9 18.6 SW | 219 45.1 69.6 S | 183 18.4 24.2 79.4
2/29/24 - 2300 19.8 -3.0 96 18.8 19.4 SW | 226 49.5 79.3 SW | 234 19.2 24.2 79.4
2/29/24 - 2200 20.7 -1.5 96 19.8 20.3 SW | 224 48.4 75.0 SW | 229 19.8 24.2 79.4
2/29/24 - 2100 21.0 -0.8 97 20.2 20.7 SW | 224 47.2 73.3 SW | 228 19.8 24.2 79.4
2/29/24 - 2000 21.2 -0.7 97 20.5 20.9 SW | 218 48.5 72.0 SW | 227 19.8 24.2 79.4
2/29/24 - 1900 21.9 0.2 97 21.2 21.6 SW | 214 48.7 78.5 SW | 222 19.8 24.2 79.4
2/29/24 - 1800 22.3 1.4 97 21.6 22.0 SSW | 212 44.5 74.9 WSW | 244 19.8 24.2 79.4
2/29/24 - 1700 22.4 1.2 97 21.7 22.0 SSW | 213 46.6 79.4 WSW | 237 19.8 24.2 79.4
2/29/24 - 1600 22.5 2.3 97 21.9 22.2 SSW | 208 41.8 73.2 SW | 222 19.8 24.2 79.4
2/29/24 - 1500 23.0 2.2 98 22.4 22.7 SSW | 213 46.4 79.4 SW | 217 19.8 24.2 79.4
2/29/24 - 1400 23.3 2.6 98 22.8 23.0 SSW | 210 46.2 75.5 SW | 222 19.8 24.2 75.5
2/29/24 - 1300 23.1 3.0 98 22.5 22.8 SSW | 213 42.3 70.6 SW | 235 19.8 24.2 70.6
2/29/24 - 1200 22.4 2.0 97 21.7 22.1 SW | 218 42.0 65.2 SW | 224 19.8 24.2 69.4
2/29/24 - 1100 21.7 0.8 97 21.0 21.4 SW | 219 43.6 65.2 SW | 221 19.8 24.2 69.4
2/29/24 - 1000 20.5 -1.1 96 19.5 20.1 SW | 223 44.7 69.4 SW | 224 19.8 24.2 69.4
2/29/24 - 0900 20.2 -1.2 92 18.1 19.5 SW | 221 43.1 63.9 SW | 215 19.8 24.2 63.9
2/29/24 - 0800 21.1 -0.6 85 17.2 19.9 SW | 223 46.4 61.7 SSW | 213 20.5 24.2 61.7
2/29/24 - 0700 21.2 -0.7 83 16.8 19.9 SW | 220 48.4 60.9 SSW | 208 20.5 24.2 61.5
2/29/24 - 0600 21.3 -1.0 80 16.1 19.7 SW | 219 50.6 61.5 SW | 219 20.5 24.2 61.5
2/29/24 - 0500 20.7 0.1 86 17.1 19.6 SW | 222 39.9 57.4 SSW | 212 20.5 24.2 57.4
2/29/24 - 0400 21.6 2.3 77 15.6 19.9 SW | 225 35.5 53.9 SW | 214 21.0 24.2 54.4
2/29/24 - 0300 22.2 3.3 75 15.6 20.3 SW | 220 34.5 45.9 SW | 228 21.9 24.2 54.4
2/29/24 - 0200 22.9 3.5 70 14.6 20.6 SW | 214 38.3 47.5 SSW | 205 22.1 24.2 54.4
2/29/24 - 0100 23.8 3.2 59 11.8 20.6 SSW | 210 47.4 54.4 SSW | 205 23.6 24.2 54.4
2/29/24 - 0000 23.5 3.5 74 16.4 21.4 SW | 218 42.5 54.4 SW | 214 23.1 31.6 54.4
2/28/24 - 2300 23.5 4.3 85 19.7 22.3 SW | 217 38.1 47.4 SW | 216 23.1 31.6 49.7
2/28/24 - 2200 23.3 4.4 93 21.6 22.7 SW | 224 36.5 48.7 SW | 222 23.1 31.6 49.7
2/28/24 - 2100 23.4 5.1 96 22.3 22.9 SW | 226 33.4 49.7 SSW | 204 23.1 31.6 49.7
2/28/24 - 2000 23.8 5.2 94 22.4 23.2 SW | 221 35.5 47.6 SSW | 209 23.1 31.6 47.6
2/28/24 - 1900 24.8 6.3 93 23.0 24.1 SW | 218 37.0 47.6 SW | 215 23.1 31.6 47.6
2/28/24 - 1800 25.6 8.3 88 22.6 24.5 SW | 221 32.4 46.1 SW | 220 23.1 31.6 47.2
2/28/24 - 1700 28.0 12.2 72 20.0 25.4 SW | 223 30.2 41.1 SW | 216 23.1 31.6 47.2
2/28/24 - 1600 29.6 14.8 64 18.7 26.1 SW | 227 27.8 47.2 SW | 216 23.1 31.6 47.2
2/28/24 - 1500 30.0 15.5 61 18.2 26.2 SW | 225 27.0 45.1 SSW | 207 23.1 31.6 45.1
2/28/24 - 1400 29.7 14.7 63 18.6 26.2 SW | 231 29.0 40.9 SW | 227 23.1 31.6 40.9
2/28/24 - 1300 30.9 17.4 52 15.4 26.2 SW | 225 24.3 36.0 WSW | 237 23.1 31.6 37.2
2/28/24 - 1200 31.3 19.9 50 14.8 26.3 SW | 227 17.2 26.8 SW | 216 23.1 31.6 37.2
2/28/24 - 1100 30.2 15.7 50 14.0 25.4 SW | 215 27.8 36.0 SSW | 207 23.1 30.7 37.2
2/28/24 - 1000 28.6 12.7 51 12.6 24.0 SW | 222 31.5 37.2 SW | 224 23.1 29.8 37.2
2/28/24 - 0900 27.7 11.5 52 12.2 23.4 SW | 224 31.4 36.8 SW | 226 23.1 28.3 37.2
2/28/24 - 0800 26.4 10.2 56 12.8 22.6 SW | 224 28.8 35.7 SW | 216 23.1 27.1 37.2
2/28/24 - 0700 24.3 6.6 56 10.8 20.7 SSW | 209 32.4 37.2 SSW | 208 23.1 25.4 37.2
2/28/24 - 0600 24.0 6.5 58 11.2 20.6 SSW | 207 31.4 35.0 SSW | 207 23.1 24.4 35.5
2/28/24 - 0500 23.7 5.7 58 10.9 20.3 SSW | 209 32.7 35.5 SSW | 212 23.1 24.3 35.5
2/28/24 - 0400 23.8 7.0 54 9.8 20.1 SSW | 211 27.6 31.4 SSW | 200 23.1 24.3 31.8
2/28/24 - 0300 23.8 6.9 58 11.3 20.5 SW | 225 28.4 30.8 SW | 227 23.3 24.1 31.8
2/28/24 - 0200 23.6 6.7 63 12.7 20.6 SW | 228 27.8 31.8 SW | 225 23.3 23.7 31.8
2/28/24 - 0100 23.4 7.2 65 13.3 20.6 SW | 233 25.0 29.2 SW | 232 23.3 23.4 29.2
2/28/24 - 0000 23.2 7.1 73 15.7 21.0 SW | 233 24.0 29.7 WSW | 241 15.2 28.5 76.8
2/27/24 - 2300 23.2 8.1 84 19.2 21.9 SW | 234 21.1 30.8 WSW | 246 15.2 28.5 76.8
2/27/24 - 2200 22.3 14.5 92 20.4 21.6 SW | 228 6.2 23.8 WSW | 242 15.2 28.5 76.8
2/27/24 - 2100 20.5 14.7 94 19.0 20.0 SE | 137 4.1 8.4 SE | 137 15.2 28.5 76.8
2/27/24 - 2000 20.3 9.4 94 18.9 19.8 E | 94 9.8 15.2 E | 97 15.2 28.5 76.8
2/27/24 - 1900 21.0 12.2 95 19.8 20.6 E | 83 7.1 11.5 E | 85 15.2 28.5 76.8
2/27/24 - 1800 22.8 14.8 95 21.7 22.4 NE | 53 6.5 10.3 NE | 50 15.2 28.5 76.8
2/27/24 - 1700 26.7 18.8 98 26.2 26.4 NE | 51 7.4 11.4 ENE | 58 15.2 28.5 76.8
2/27/24 - 1600 24.5 14.0 98 23.9 24.2 NE | 47 10.7 15.7 NE | 52 15.2 26.4 76.8
2/27/24 - 1500 23.8 11.8 96 23.0 23.4 NE | 49 13.5 25.7 NE | 36 15.2 25.7 76.8
2/27/24 - 1400 24.5 11.6 97 23.9 24.2 E | 86 16.0 30.2 NNE | 15 15.2 25.7 76.8
2/27/24 - 1300 23.9 14.5 96 23.0 23.5 E | 93 8.7 25.9 NNE | 24 15.2 25.1 76.8
2/27/24 - 1200 24.4 14.5 97 23.7 24.0 ESE | 102 9.6 19.8 ESE | 110 15.2 24.8 76.8
2/27/24 - 1100 21.7 13.0 96 20.8 21.3 ENE | 77 7.0 14.6 NE | 52 15.2 23.8 76.8
2/27/24 - 1000 19.2 13.0 95 18.0 18.8 WNW | 294 4.2 14.3 NW | 308 15.2 20.2 76.8
2/27/24 - 0900 18.0 6.5 95 16.8 17.6 WSW | 250 9.8 18.8 SSW | 193 15.2 20.0 76.8
2/27/24 - 0800 16.1 0.2 94 14.8 15.8 SW | 216 17.4 29.1 WNW | 297 15.2 20.0 76.8
Max 31.3 19.9 98 26.2 26.4 - 64.8 138.2 - 23.6 31.6 138.2
Avg 17.9 -1.7 89 15.0 17.1 - 32.9 58.1 - - - -
Min 8.6 -17.0 50 6.5 8.4 - 4.1 8.4 - 8.4 11.6 29.2